Wednesday, June 20, 2018, 9:05 PM GMT
Back to Local

CYPD, Port Hawkesbury

Location: , , Canada Lat: 45.667
Local Time: 9:05 PM GMT (21:05 GMT) Lon: -61.383
Time Zone: GMT Elev: 374 ft

Show me the last for .
Show Coded

Time T Td Feel RH Dir Speed Gust Alt SLP Vis Weather Sky Remarks
2018-06-20 20:00 77 50 - 38 280° 8 - 29.65 29.66 9 CLR None
2018-06-20 19:00 75 48 - 38 310° 7 - 29.66 29.66 9 CLR None
2018-06-20 18:00 73 50 76 43 290° 9 - 29.67 29.68 9 CLR None
2018-06-20 17:00 72 48 76 43 280° 6 - 29.69 29.69 9 CLR None
2018-06-20 16:00 66 48 - 52 290° 9 - 29.70 29.71 9 CLR None
2018-06-20 15:00 64 50 - 59 290° 13 - 29.72 29.72 9 CLR None
2018-06-20 14:00 61 46 - 59 290° 13 18 29.71 29.72 9 CLR None
2018-06-20 13:00 57 46 - 67 300° 15 21 29.70 29.71 9 CLR None
2018-06-20 12:00 57 48 - 71 300° 10 17 29.70 29.71 9 CLR None
2018-06-20 11:00 55 48 - 76 300° 12 18 29.69 29.70 9 CLR None
2018-06-20 10:00 54 48 - 81 300° 10 - 29.68 29.69 9 CLR None
2018-06-20 09:00 54 46 - 76 290° 10 17 29.65 29.66 9 SCT049 None
2018-06-20 08:00 54 46 - 76 290° 12 17 29.64 29.65 9 OVC049 None
2018-06-20 07:00 54 46 - 76 300° 15 - 29.63 29.64 9 OVC049 None
2018-06-20 06:00 52 46 - 81 300° 7 - 29.64 29.65 9 BKN043 OVC060 None
2018-06-20 05:00 52 46 - 81 300° 13 20 29.62 29.63 9 OVC055 None
2018-06-20 04:00 52 46 - 81 300° 8 - 29.61 29.62 9 OVC055 None
2018-06-20 03:00 52 46 - 81 320° 8 - 29.61 29.61 9 BKN040 OVC055 None
2018-06-20 02:54 52 46 - 81 320° 9 - 29.61 29.61 9 BKN040 OVC055 None
2018-06-20 02:41 54 46 - 76 310° 7 - 29.60 29.61 9 -RA BKN040 OVC055 None
2018-06-20 02:00 52 48 - 87 290° 10 - 29.59 29.60 9 OVC060 None
2018-06-20 01:00 52 48 - 87 290° 6 - 29.59 29.59 9 OVC065 None
2018-06-20 00:00 54 48 - 81 310° 7 - 29.56 29.57 9 OVC060 None
2018-06-19 23:00 54 48 - 81 310° 13 20 29.55 29.55 9 BKN060 None
2018-06-19 22:00 54 50 - 87 300° 8 - 29.53 29.54 9 BKN060 None

Support USWX by starting your Amazon purchase here.